createdAt,value
2023-03-20T00:02:03.094Z,13.03
2023-03-20T00:04:31.417Z,13.13
2023-03-20T00:06:59.284Z,11.13
2023-03-20T00:09:28.319Z,13.00
2023-03-20T00:11:57.589Z,11.27
2023-03-20T00:14:26.271Z,11.70
2023-03-20T00:16:54.340Z,15.70
2023-03-20T00:19:24.288Z,13.43
2023-03-20T00:21:53.578Z,17.93
2023-03-20T00:24:21.734Z,13.30
2023-03-20T00:26:51.393Z,13.37
2023-03-20T00:29:23.557Z,14.03
2023-03-20T00:31:52.456Z,14.60
2023-03-20T00:34:23.460Z,15.27
2023-03-20T00:36:51.646Z,14.57
2023-03-20T00:39:19.695Z,21.37
2023-03-20T00:41:52.604Z,13.23
2023-03-20T00:44:25.040Z,16.63
2023-03-20T00:46:55.807Z,17.47
2023-03-20T00:49:26.410Z,14.60
2023-03-20T00:51:54.362Z,14.17
2023-03-20T00:54:22.346Z,12.80
2023-03-20T00:56:56.720Z,11.33
2023-03-20T00:59:29.734Z,15.37
2023-03-20T01:01:58.684Z,12.30
2023-03-20T01:04:32.392Z,12.50
2023-03-20T01:07:01.629Z,15.17
2023-03-20T01:09:29.559Z,13.07
2023-03-20T01:11:57.509Z,11.30
2023-03-20T01:14:26.812Z,14.93
2023-03-20T01:16:54.794Z,10.33
2023-03-20T01:19:22.771Z,12.70
2023-03-20T01:21:50.683Z,8.23
2023-03-20T01:24:18.825Z,8.60
2023-03-20T01:26:46.939Z,6.47
2023-03-20T01:29:20.247Z,8.17
2023-03-20T01:31:49.592Z,9.87
2023-03-20T01:34:17.764Z,8.10
2023-03-20T01:36:50.694Z,8.83
2023-03-20T01:39:19.131Z,6.07
2023-03-20T01:41:48.030Z,4.90
2023-03-20T01:44:22.313Z,5.90
2023-03-20T01:46:53.787Z,9.37
2023-03-20T01:49:59.019Z,6.20
2023-03-20T01:52:26.938Z,6.80
2023-03-20T01:54:54.867Z,5.90
2023-03-20T01:57:25.685Z,6.93
2023-03-20T01:59:57.956Z,7.57
2023-03-20T02:02:31.725Z,4.63
2023-03-20T02:05:04.136Z,6.20
2023-03-20T02:07:33.771Z,5.43
2023-03-20T02:10:03.418Z,4.70
2023-03-20T02:12:32.338Z,6.23
2023-03-20T02:15:00.764Z,11.97
2023-03-20T02:17:30.300Z,8.20
2023-03-20T02:20:07.631Z,6.97
2023-03-20T02:23:08.176Z,7.83
2023-03-20T02:25:59.203Z,5.53
2023-03-20T02:29:05.713Z,7.10
2023-03-20T02:32:04.791Z,6.57
2023-03-20T02:35:08.759Z,7.00
2023-03-20T02:37:50.937Z,8.87
2023-03-20T02:40:26.468Z,7.43
2023-03-20T02:43:03.254Z,8.00
2023-03-20T02:45:34.754Z,6.90
2023-03-20T02:48:14.748Z,7.73
2023-03-20T02:50:50.307Z,8.40
2023-03-20T02:53:32.649Z,8.90
2023-03-20T02:56:09.479Z,8.93
2023-03-20T02:58:44.590Z,12.97
2023-03-20T03:01:16.319Z,10.27
2023-03-20T03:03:49.553Z,10.73
2023-03-20T03:06:23.138Z,15.17
2023-03-20T03:09:02.243Z,16.07
2023-03-20T03:11:31.668Z,15.53
2023-03-20T03:14:00.209Z,18.03
2023-03-20T03:16:31.517Z,15.77
2023-03-20T03:19:09.956Z,16.43
2023-03-20T03:21:40.630Z,18.77
2023-03-20T03:24:39.907Z,16.27
2023-03-20T03:27:17.488Z,15.53
2023-03-20T03:29:49.728Z,16.47
2023-03-20T03:32:26.775Z,18.57
2023-03-20T03:34:55.286Z,14.17
2023-03-20T03:37:38.044Z,19.83
2023-03-20T03:40:18.041Z,16.90
2023-03-20T03:42:54.638Z,18.23
2023-03-20T03:45:30.470Z,23.10
2023-03-20T03:48:04.005Z,18.57
2023-03-20T03:50:38.326Z,18.97
2023-03-20T03:53:11.912Z,16.73
2023-03-20T03:55:45.878Z,19.27
2023-03-20T03:58:20.159Z,15.67
2023-03-20T04:00:50.609Z,20.33
2023-03-20T04:03:20.724Z,15.67
2023-03-20T04:05:49.806Z,20.57
2023-03-20T04:08:17.628Z,15.07
2023-03-20T04:10:46.979Z,18.07
2023-03-20T04:13:16.352Z,18.23
2023-03-20T04:15:45.090Z,18.30
2023-03-20T04:18:17.430Z,17.43
2023-03-20T04:20:46.588Z,15.87
2023-03-20T04:23:15.172Z,18.90
2023-03-20T04:25:44.329Z,20.03
2023-03-20T04:28:16.308Z,16.57
2023-03-20T04:30:48.126Z,16.87
2023-03-20T04:33:16.383Z,16.03
2023-03-20T04:35:45.226Z,20.17
2023-03-20T04:38:13.233Z,15.10
2023-03-20T04:40:41.217Z,17.00
2023-03-20T04:43:09.071Z,17.97
2023-03-20T04:45:38.572Z,14.70
2023-03-20T04:48:07.478Z,15.93
2023-03-20T04:50:35.280Z,14.93
2023-03-20T04:53:03.149Z,14.27
2023-03-20T04:55:31.012Z,17.50
2023-03-20T04:57:58.825Z,18.50
2023-03-20T05:00:28.829Z,17.87
2023-03-20T05:02:58.116Z,18.03
2023-03-20T05:05:26.073Z,19.87
2023-03-20T05:07:53.985Z,16.50
2023-03-20T05:10:21.988Z,15.37
2023-03-20T05:12:49.777Z,14.23
2023-03-20T05:15:18.009Z,18.17
2023-03-20T05:17:45.884Z,16.13
2023-03-20T05:20:15.918Z,16.77
2023-03-20T05:22:44.468Z,15.47
2023-03-20T05:25:12.281Z,17.70
2023-03-20T05:27:40.252Z,15.47
2023-03-20T05:30:08.881Z,14.70
2023-03-20T05:32:36.994Z,18.50
2023-03-20T05:35:05.394Z,14.23
2023-03-20T05:37:34.677Z,16.80
2023-03-20T05:40:03.205Z,15.83
2023-03-20T05:42:31.328Z,20.30
2023-03-20T05:44:59.322Z,14.83
2023-03-20T05:47:27.131Z,16.33
2023-03-20T05:49:54.973Z,14.67
2023-03-20T05:52:22.814Z,13.53
2023-03-20T05:54:52.115Z,14.83
2023-03-20T05:57:20.256Z,14.73
2023-03-20T05:59:48.164Z,15.47
2023-03-20T06:02:16.058Z,13.50
2023-03-20T06:04:45.804Z,14.47
2023-03-20T06:07:14.456Z,13.33
2023-03-20T06:09:43.095Z,15.27
2023-03-20T06:12:12.575Z,16.03
2023-03-20T06:14:40.434Z,16.90
2023-03-20T06:17:08.275Z,15.13
2023-03-20T06:19:36.718Z,14.60
2023-03-20T06:22:04.617Z,14.70
2023-03-20T06:24:33.205Z,14.77
2023-03-20T06:27:01.037Z,16.23
2023-03-20T06:29:31.188Z,23.93
2023-03-20T06:31:58.980Z,16.23
2023-03-20T06:34:27.677Z,15.47
2023-03-20T06:36:55.624Z,16.33
2023-03-20T06:39:23.497Z,15.63
2023-03-20T06:41:51.407Z,16.93
2023-03-20T06:44:19.261Z,13.93
2023-03-20T06:46:48.532Z,15.97
2023-03-20T06:49:16.878Z,12.53
2023-03-20T06:51:47.826Z,16.67
2023-03-20T06:54:15.748Z,19.17
2023-03-20T06:56:44.210Z,17.43
2023-03-20T06:59:12.125Z,20.33
2023-03-20T07:01:40.250Z,13.37
2023-03-20T07:04:09.450Z,16.23
2023-03-20T07:06:37.929Z,14.43
2023-03-20T07:09:05.914Z,14.20
2023-03-20T07:11:34.154Z,20.93
2023-03-20T07:14:02.786Z,19.60
2023-03-20T07:16:30.770Z,14.67
2023-03-20T07:18:58.602Z,18.33
2023-03-20T07:21:28.007Z,15.17
2023-03-20T07:23:55.850Z,15.13
2023-03-20T07:26:23.644Z,18.57
2023-03-20T07:28:51.548Z,14.90
2023-03-20T07:31:21.957Z,14.77
2023-03-20T07:33:50.005Z,15.17
2023-03-20T07:36:17.877Z,12.93
2023-03-20T07:38:47.356Z,11.83
2023-03-20T07:41:15.353Z,12.20
2023-03-20T07:43:44.853Z,13.10
2023-03-20T07:46:13.168Z,15.17
2023-03-20T07:48:41.053Z,14.33
2023-03-20T07:51:09.503Z,11.53
2023-03-20T07:53:37.522Z,15.30
2023-03-20T07:56:07.865Z,12.00
2023-03-20T07:58:36.109Z,13.10
2023-03-20T08:01:04.721Z,11.93
2023-03-20T08:03:33.066Z,14.97
2023-03-20T08:06:01.750Z,14.20
2023-03-20T08:08:29.826Z,13.93
2023-03-20T08:10:57.625Z,16.77
2023-03-20T08:13:26.824Z,14.93
2023-03-20T08:15:54.666Z,12.63
2023-03-20T08:18:22.528Z,15.63
2023-03-20T08:20:50.837Z,11.87
2023-03-20T08:23:20.795Z,11.83
2023-03-20T08:25:49.693Z,12.83
2023-03-20T08:28:18.088Z,9.13
2023-03-20T08:30:48.045Z,11.23
2023-03-20T08:33:17.305Z,11.90
2023-03-20T08:35:55.798Z,12.57
2023-03-20T08:38:23.724Z,14.37
2023-03-20T08:40:51.938Z,12.47
2023-03-20T08:43:20.017Z,9.87
2023-03-20T08:45:49.362Z,12.07
2023-03-20T08:48:17.756Z,10.57
2023-03-20T08:50:46.872Z,12.57
2023-03-20T08:53:14.861Z,10.90
2023-03-20T08:55:44.887Z,13.93
2023-03-20T08:58:13.344Z,15.27
2023-03-20T09:00:43.139Z,10.10
2023-03-20T09:03:15.665Z,10.63
2023-03-20T09:05:47.014Z,12.67
2023-03-20T09:08:15.835Z,8.47
2023-03-20T09:10:46.238Z,10.13
2023-03-20T09:13:26.706Z,12.47
2023-03-20T09:15:56.779Z,13.67
2023-03-20T09:18:26.868Z,12.23
2023-03-20T09:20:56.412Z,10.17
2023-03-20T09:23:24.471Z,9.10
2023-03-20T09:25:52.654Z,12.10
2023-03-20T09:28:20.824Z,9.80
2023-03-20T09:30:49.549Z,9.93
2023-03-20T09:33:18.568Z,9.70
2023-03-20T09:35:47.933Z,10.70
2023-03-20T09:38:16.071Z,10.17
2023-03-20T09:40:52.495Z,12.13
2023-03-20T09:43:33.004Z,12.33
2023-03-20T09:46:13.240Z,10.20
2023-03-20T09:48:47.312Z,10.07
2023-03-20T09:51:25.439Z,9.60
2023-03-20T09:54:01.029Z,7.80
2023-03-20T09:56:31.497Z,10.00
2023-03-20T09:59:06.348Z,9.67
2023-03-20T10:01:46.003Z,10.30
2023-03-20T10:04:14.439Z,10.60
2023-03-20T10:06:46.628Z,8.47
2023-03-20T10:09:18.649Z,7.50
2023-03-20T10:12:10.015Z,9.13
2023-03-20T10:14:49.614Z,9.00
2023-03-20T10:17:29.760Z,7.57
2023-03-20T10:19:59.481Z,7.77
2023-03-20T10:22:33.941Z,8.03
2023-03-20T10:25:08.699Z,6.00
2023-03-20T10:27:41.110Z,9.50
2023-03-20T10:30:24.452Z,8.33
2023-03-20T10:33:01.955Z,10.90
2023-03-20T10:35:35.229Z,8.60
2023-03-20T10:38:23.971Z,9.30
2023-03-20T10:40:52.158Z,7.60
2023-03-20T10:43:24.201Z,12.70
2023-03-20T10:45:55.397Z,5.20
2023-03-20T10:48:28.166Z,8.17
2023-03-20T10:50:57.665Z,9.00
2023-03-20T10:53:32.978Z,13.03
2023-03-20T10:56:04.073Z,8.10
2023-03-20T10:58:35.124Z,9.33
2023-03-20T11:01:03.445Z,9.37
2023-03-20T11:03:34.183Z,9.47
2023-03-20T11:06:10.204Z,6.60
2023-03-20T11:08:43.810Z,10.43
2023-03-20T11:11:12.354Z,15.33
2023-03-20T11:13:44.700Z,9.20
2023-03-20T11:16:19.844Z,8.13
2023-03-20T11:18:49.195Z,9.03
2023-03-20T11:21:20.933Z,8.80
2023-03-20T11:23:50.901Z,12.10
2023-03-20T11:26:20.679Z,12.30
2023-03-20T11:28:52.207Z,9.40
2023-03-20T11:31:25.820Z,10.03
2023-03-20T11:34:01.665Z,12.97
2023-03-20T11:36:31.215Z,11.93
2023-03-20T11:39:07.782Z,9.77
2023-03-20T11:41:43.362Z,11.67
2023-03-20T11:44:23.736Z,10.10
2023-03-20T11:46:57.560Z,9.70
2023-03-20T11:49:27.707Z,11.00
2023-03-20T11:52:00.581Z,10.83
2023-03-20T11:54:31.139Z,10.87
2023-03-20T11:57:00.918Z,11.07
2023-03-20T11:59:33.934Z,13.63
2023-03-20T12:02:03.242Z,11.10
2023-03-20T12:04:33.800Z,10.50
2023-03-20T12:07:06.752Z,11.73
2023-03-20T12:09:44.263Z,13.23
2023-03-20T12:12:19.699Z,15.70
2023-03-20T12:14:55.779Z,11.93
2023-03-20T12:17:35.899Z,14.67
2023-03-20T12:20:13.637Z,13.73
2023-03-20T12:22:50.946Z,11.33
2023-03-20T12:25:25.370Z,10.70
2023-03-20T12:27:58.912Z,13.63
2023-03-20T12:30:34.197Z,14.53
2023-03-20T12:33:06.889Z,16.40
2023-03-20T12:35:38.955Z,12.33
2023-03-20T12:38:21.148Z,12.13
2023-03-20T12:40:54.838Z,10.90
2023-03-20T12:43:27.218Z,12.97
2023-03-20T12:46:02.871Z,10.30
2023-03-20T12:48:58.059Z,13.13
2023-03-20T12:51:39.191Z,13.13
2023-03-20T12:54:20.966Z,10.53
2023-03-20T12:57:03.273Z,14.63
2023-03-20T12:59:40.520Z,13.27
2023-03-20T13:02:20.543Z,16.17
2023-03-20T13:04:59.216Z,14.20
2023-03-20T13:07:51.472Z,13.87
2023-03-20T13:10:22.479Z,10.27
2023-03-20T13:13:07.769Z,12.10
2023-03-20T13:15:59.232Z,16.50
2023-03-20T13:18:37.819Z,11.13
2023-03-20T13:21:10.908Z,13.20
2023-03-20T13:23:46.283Z,12.63
2023-03-20T13:26:27.678Z,11.30
2023-03-20T13:29:04.304Z,12.93
2023-03-20T13:31:39.566Z,12.47
2023-03-20T13:34:21.334Z,11.73
2023-03-20T13:37:19.966Z,14.87
2023-03-20T13:40:04.445Z,13.57
2023-03-20T13:42:36.874Z,9.67
2023-03-20T13:45:15.345Z,13.40
2023-03-20T13:47:46.127Z,12.50
2023-03-20T13:50:29.807Z,14.57
2023-03-20T13:53:03.803Z,10.93
2023-03-20T13:55:38.812Z,11.93
2023-03-20T13:58:28.778Z,16.70
2023-03-20T14:01:04.352Z,17.93
2023-03-20T14:03:35.065Z,13.13
2023-03-20T14:06:16.557Z,12.60
2023-03-20T14:08:49.470Z,15.10
2023-03-20T14:11:35.459Z,12.30
2023-03-20T14:14:09.427Z,14.07
2023-03-20T14:16:39.115Z,11.53
2023-03-20T14:19:09.125Z,14.17
2023-03-20T14:21:37.830Z,11.93
2023-03-20T14:24:07.768Z,13.03
2023-03-20T14:26:39.130Z,17.90
2023-03-20T14:29:23.431Z,15.33
2023-03-20T14:31:52.762Z,14.27
2023-03-20T14:34:24.671Z,15.40
2023-03-20T14:36:58.495Z,11.23
2023-03-20T14:39:46.852Z,14.33
2023-03-20T14:42:27.804Z,15.23
2023-03-20T14:45:20.245Z,16.17
2023-03-20T14:47:57.152Z,12.03
2023-03-20T14:50:30.777Z,13.97
2023-03-20T14:53:09.806Z,12.47
2023-03-20T14:55:54.458Z,8.70
2023-03-20T14:58:57.759Z,12.40
2023-03-20T15:01:46.594Z,11.70
2023-03-20T15:04:28.234Z,12.43
2023-03-20T15:06:59.569Z,13.27
2023-03-20T15:09:30.749Z,10.87
2023-03-20T15:12:04.200Z,17.27
2023-03-20T15:14:41.490Z,11.47
2023-03-20T15:17:19.122Z,10.57
2023-03-20T15:19:50.363Z,9.67
2023-03-20T15:22:20.292Z,11.47
2023-03-20T15:24:55.777Z,11.20
2023-03-20T15:27:29.831Z,11.00
2023-03-20T15:30:01.344Z,11.43
2023-03-20T15:32:29.850Z,10.63
2023-03-20T15:34:59.261Z,15.37
2023-03-20T15:37:28.600Z,9.90
2023-03-20T15:39:59.037Z,9.10
2023-03-20T15:42:27.569Z,9.20
2023-03-20T15:44:56.709Z,13.60
2023-03-20T15:47:26.041Z,9.00
2023-03-20T15:49:55.714Z,12.00
2023-03-20T15:52:31.952Z,11.47
2023-03-20T15:55:05.186Z,12.37
2023-03-20T15:57:36.536Z,10.87
2023-03-20T16:00:07.338Z,11.67
2023-03-20T16:02:36.985Z,11.57
2023-03-20T16:05:06.224Z,12.53
2023-03-20T16:07:35.482Z,9.13
2023-03-20T16:10:03.529Z,12.03
2023-03-20T16:12:32.820Z,15.97
2023-03-20T16:15:00.816Z,16.83
2023-03-20T16:17:29.119Z,15.37
2023-03-20T16:19:57.124Z,11.07
2023-03-20T16:22:29.327Z,16.50
2023-03-20T16:25:02.151Z,12.00
2023-03-20T16:27:33.249Z,15.10
2023-03-20T16:30:05.198Z,15.53
2023-03-20T16:32:39.149Z,15.43
2023-03-20T16:35:16.176Z,10.47
2023-03-20T16:37:49.532Z,16.03
2023-03-20T16:40:22.380Z,18.80
2023-03-20T16:42:54.752Z,14.33
2023-03-20T16:45:29.584Z,12.80
2023-03-20T16:48:25.459Z,17.43
2023-03-20T16:51:04.037Z,13.67
2023-03-20T16:53:38.979Z,19.53
2023-03-20T16:56:15.947Z,17.17
2023-03-20T16:58:46.697Z,15.27
2023-03-20T17:01:21.124Z,16.53
2023-03-20T17:03:52.992Z,15.67
2023-03-20T17:06:37.216Z,17.57
2023-03-20T17:09:24.636Z,13.20
2023-03-20T17:12:01.298Z,17.87
2023-03-20T17:14:29.430Z,18.37
2023-03-20T17:16:57.963Z,15.37
2023-03-20T17:19:25.953Z,15.53
2023-03-20T17:21:54.585Z,17.63
2023-03-20T17:24:22.542Z,17.77
2023-03-20T17:26:56.140Z,19.83
2023-03-20T17:29:24.074Z,18.13
2023-03-20T17:31:52.687Z,15.37
2023-03-20T17:34:21.010Z,18.33
2023-03-20T17:36:49.584Z,17.57
2023-03-20T17:39:21.003Z,15.07
2023-03-20T17:41:49.315Z,17.07
2023-03-20T17:44:18.555Z,19.70
2023-03-20T17:46:57.805Z,15.10
2023-03-20T17:49:27.979Z,17.63
2023-03-20T17:51:58.836Z,17.83
2023-03-20T17:54:26.716Z,16.10
2023-03-20T17:56:54.726Z,14.63
2023-03-20T17:59:24.856Z,19.23
2023-03-20T18:01:52.891Z,15.93
2023-03-20T18:04:25.338Z,18.80
2023-03-20T18:06:53.592Z,21.40
2023-03-20T18:09:21.726Z,18.77
2023-03-20T18:11:49.606Z,21.07
2023-03-20T18:14:19.370Z,16.67
2023-03-20T18:16:48.693Z,19.67
2023-03-20T18:19:24.619Z,17.73
2023-03-20T18:21:52.915Z,16.17
2023-03-20T18:24:20.776Z,23.37
2023-03-20T18:26:48.833Z,20.80
2023-03-20T18:29:16.931Z,16.73
2023-03-20T18:31:47.060Z,18.00
2023-03-20T18:34:16.757Z,19.20
2023-03-20T18:36:46.282Z,16.20
2023-03-20T18:39:18.810Z,20.43
2023-03-20T18:41:47.194Z,21.63
2023-03-20T18:44:16.409Z,15.07
2023-03-20T18:46:45.224Z,15.03
2023-03-20T18:49:17.058Z,16.03
2023-03-20T18:51:46.769Z,17.90
2023-03-20T18:54:15.434Z,17.93
2023-03-20T18:56:45.083Z,17.17
2023-03-20T18:59:13.825Z,20.40
2023-03-20T19:01:41.750Z,14.47
2023-03-20T19:04:10.015Z,17.03
2023-03-20T19:06:39.368Z,12.30
2023-03-20T19:09:07.561Z,17.53
2023-03-20T19:11:35.805Z,17.07
2023-03-20T19:14:03.668Z,17.57
2023-03-20T19:16:34.903Z,19.80
2023-03-20T19:19:04.522Z,23.80
2023-03-20T19:21:34.661Z,17.67
2023-03-20T19:24:06.400Z,13.23
2023-03-20T19:26:36.142Z,16.53
2023-03-20T19:29:09.098Z,17.13
2023-03-20T19:31:37.477Z,14.03
2023-03-20T19:34:06.687Z,15.53
2023-03-20T19:36:37.186Z,13.03
2023-03-20T19:39:08.440Z,15.47
2023-03-20T19:41:36.531Z,14.47
2023-03-20T19:44:06.448Z,17.67
2023-03-20T19:46:40.795Z,15.27
2023-03-20T19:49:18.368Z,14.67
2023-03-20T19:51:47.126Z,17.27
2023-03-20T19:54:16.439Z,13.47
2023-03-20T19:56:45.012Z,15.43
2023-03-20T19:59:16.323Z,15.67
2023-03-20T20:01:46.978Z,16.77
2023-03-20T20:04:16.127Z,23.70
2023-03-20T20:06:47.496Z,15.47
2023-03-20T20:09:17.256Z,17.90
2023-03-20T20:11:46.037Z,15.23
2023-03-20T20:14:15.273Z,16.13
2023-03-20T20:16:45.889Z,18.13
2023-03-20T20:19:13.943Z,13.83
2023-03-20T20:24:31.147Z,11.53
2023-03-20T20:27:15.693Z,12.77
2023-03-20T20:29:47.159Z,12.13
2023-03-20T20:32:15.286Z,9.67
2023-03-20T20:40:23.765Z,10.27
2023-03-20T20:42:54.202Z,9.70
2023-03-20T20:45:23.571Z,10.33
2023-03-20T20:47:51.834Z,8.37
2023-03-20T20:50:21.877Z,9.00
2023-03-20T20:52:50.326Z,9.33
2023-03-20T20:55:23.406Z,7.47
2023-03-20T20:58:05.890Z,6.57
2023-03-20T21:00:48.056Z,7.10
2023-03-20T21:03:19.001Z,7.10
2023-03-20T21:05:46.866Z,6.47
2023-03-20T21:08:16.410Z,6.87
2023-03-20T21:10:46.853Z,6.93
2023-03-20T21:13:16.445Z,9.10
2023-03-20T21:15:46.460Z,7.93
2023-03-20T21:18:14.881Z,8.37
2023-03-20T21:20:42.898Z,8.87
2023-03-20T21:23:11.252Z,9.00
2023-03-20T21:25:41.585Z,10.13
2023-03-20T21:28:11.216Z,9.23
2023-03-20T21:30:54.618Z,9.47
2023-03-20T21:33:29.782Z,11.33
2023-03-20T21:35:57.843Z,12.63
2023-03-20T21:41:14.245Z,11.87
2023-03-20T21:43:43.404Z,13.30
2023-03-20T21:46:48.604Z,12.83
2023-03-20T21:50:12.368Z,15.20
2023-03-20T21:55:11.215Z,11.30
2023-03-20T22:01:03.245Z,10.83
2023-03-20T22:03:10.523Z,11.60
2023-03-20T22:09:20.207Z,9.40
2023-03-20T22:17:45.821Z,14.90
2023-03-20T22:20:26.240Z,13.80
2023-03-20T22:25:53.093Z,12.10
2023-03-20T22:34:25.827Z,12.63
2023-03-20T22:42:43.897Z,9.43
2023-03-20T22:45:01.904Z,8.80
2023-03-20T22:47:31.146Z,8.87
2023-03-20T22:49:59.069Z,8.83
2023-03-20T22:52:45.428Z,9.50
2023-03-20T22:55:16.410Z,8.47
2023-03-20T22:57:56.089Z,10.10
2023-03-20T23:00:27.894Z,8.57
2023-03-20T23:03:06.650Z,10.30
2023-03-20T23:05:39.873Z,10.07
2023-03-20T23:08:10.355Z,9.13
2023-03-20T23:10:40.386Z,8.97
2023-03-20T23:13:08.331Z,8.77
2023-03-20T23:15:36.499Z,9.37
2023-03-20T23:18:04.629Z,12.07
2023-03-20T23:20:32.682Z,9.57
2023-03-20T23:23:00.604Z,9.33
2023-03-20T23:25:38.612Z,10.70
2023-03-20T23:28:07.404Z,10.20
2023-03-20T23:30:46.570Z,11.33
2023-03-20T23:33:17.772Z,10.37
2023-03-20T23:35:48.364Z,11.00
2023-03-20T23:38:16.364Z,11.50
2023-03-20T23:40:51.106Z,10.83
2023-03-20T23:43:19.468Z,11.00
2023-03-20T23:45:47.574Z,12.23
2023-03-20T23:48:15.766Z,13.70
2023-03-20T23:53:32.219Z,12.20
2023-03-20T23:56:01.428Z,12.60
2023-03-20T23:58:29.669Z,11.97
